PWSweather.com
Personal Weather Stations
Station Observations
ISYDDANM23
Felsted, AabenraaDK 6200

FelstedAabenraaDK 6200

Lat: 54.977066, Lon: 9.507192

Elevation: 135

Station Type: Davis Vantage Pro 2 Plus 24H

http://www.valkaer.dk

High Low Average
Temperature 66.7°F19.3°C 49.3°F9.6°C 56.6°F13.7°C
Dew Point 57.1°F13.9°C 47.4°F8.6°C 51.8°F11.0°C
Winds 9.2 mph 14.8 kmh 1.2 mph 1.9 kmh 5.0 mph E8.0 kmh E
Wind Gusts 16.1 mph25.9 kmh 2.3 mph3.7 kmh 8.0 mph12.9 kmh
Humidity 95% 70% 85%
Pressure 29.85 in1010.8 mb 29.78 in1008.5 mb -
Precipitation 0.00 in0.0 mm - -
Hour Temp Dew Point Humidity Winds Wind Gusts Pressure Precip Precip Rate Daily Precip Total
12:00 AM 49.7°F9.8°C 47.7°F8.7°C 93% 4.6 mph E7.4 kmh E 5.8 mph9.3 kmh 29.84 in1010.5 mb - 0.00 in0.0 mm 0.00 in0.0 mm
12:10 AM 49.5°F9.7°C 47.6°F8.7°C 93% 5.8 mph E9.3 kmh E 9.2 mph14.8 kmh 29.84 in1010.5 mb - 0.00 in0.0 mm 0.00 in0.0 mm
12:15 AM 49.5°F9.7°C 47.6°F8.7°C 93% 6.9 mph ENE11.1 kmh ENE 11.5 mph18.5 kmh 29.84 in1010.5 mb - 0.00 in0.0 mm 0.00 in0.0 mm
12:20 AM 49.5°F9.7°C 47.6°F8.7°C 93% 4.6 mph E7.4 kmh E 8.1 mph13.0 kmh 29.84 in1010.5 mb - 0.00 in0.0 mm 0.00 in0.0 mm
12:25 AM 49.5°F9.7°C 47.6°F8.7°C 93% 4.6 mph ESE7.4 kmh ESE 6.9 mph11.1 kmh 29.85 in1010.8 mb - 0.00 in0.0 mm 0.00 in0.0 mm
12:30 AM 49.5°F9.7°C 47.6°F8.7°C 93% 5.8 mph E9.3 kmh E 9.2 mph14.8 kmh 29.84 in1010.5 mb - 0.00 in0.0 mm 0.00 in0.0 mm
12:35 AM 49.5°F9.7°C 47.6°F8.7°C 93% 3.5 mph ESE5.6 kmh ESE 8.1 mph13.0 kmh 29.85 in1010.8 mb - 0.00 in0.0 mm 0.00 in0.0 mm
12:40 AM 49.5°F9.7°C 47.6°F8.7°C 93% 4.6 mph E7.4 kmh E 9.2 mph14.8 kmh 29.85 in1010.8 mb - 0.00 in0.0 mm 0.00 in0.0 mm
12:45 AM 49.5°F9.7°C 47.6°F8.7°C 93% 3.5 mph E5.6 kmh E 6.9 mph11.1 kmh 29.85 in1010.8 mb - 0.00 in0.0 mm 0.00 in0.0 mm
12:50 AM 49.5°F9.7°C 47.6°F8.7°C 93% 2.3 mph E3.7 kmh E 3.5 mph5.6 kmh 29.85 in1010.8 mb - 0.00 in0.0 mm 0.00 in0.0 mm
12:55 AM 49.5°F9.7°C 47.6°F8.7°C 93% 3.5 mph E5.6 kmh E 3.5 mph5.6 kmh 29.85 in1010.8 mb - 0.00 in0.0 mm 0.00 in0.0 mm
01:00 AM 49.5°F9.7°C 47.6°F8.7°C 93% 3.5 mph SE5.6 kmh SE 8.1 mph13.0 kmh 29.85 in1010.8 mb - 0.00 in0.0 mm 0.00 in0.0 mm
01:10 AM 49.5°F9.7°C 47.8°F8.8°C 94% 2.3 mph E3.7 kmh E 8.1 mph13.0 kmh 29.85 in1010.8 mb - 0.00 in0.0 mm 0.00 in0.0 mm
01:15 AM 49.6°F9.8°C 47.6°F8.7°C 93% 4.6 mph E7.4 kmh E 9.2 mph14.8 kmh 29.84 in1010.5 mb - 0.00 in0.0 mm 0.00 in0.0 mm
01:20 AM 49.5°F9.7°C 47.6°F8.7°C 93% 3.5 mph E5.6 kmh E 6.9 mph11.1 kmh 29.84 in1010.5 mb - 0.00 in0.0 mm 0.00 in0.0 mm
01:25 AM 49.4°F9.7°C 47.5°F8.6°C 93% 4.6 mph E7.4 kmh E 6.9 mph11.1 kmh 29.84 in1010.5 mb - 0.00 in0.0 mm 0.00 in0.0 mm
01:30 AM 49.4°F9.7°C 47.5°F8.6°C 93% 3.5 mph E5.6 kmh E 5.8 mph9.3 kmh 29.84 in1010.5 mb - 0.00 in0.0 mm 0.00 in0.0 mm
01:35 AM 49.4°F9.7°C 47.5°F8.6°C 93% 5.8 mph E9.3 kmh E 9.2 mph14.8 kmh 29.84 in1010.5 mb - 0.00 in0.0 mm 0.00 in0.0 mm
01:40 AM 49.3°F9.6°C 47.4°F8.6°C 93% 4.6 mph E7.4 kmh E 6.9 mph11.1 kmh 29.84 in1010.5 mb - 0.00 in0.0 mm 0.00 in0.0 mm
01:45 AM 49.4°F9.7°C 47.5°F8.6°C 93% 2.3 mph ENE3.7 kmh ENE 3.5 mph5.6 kmh 29.84 in1010.5 mb - 0.00 in0.0 mm 0.00 in0.0 mm
01:50 AM 49.4°F9.7°C 47.7°F8.7°C 94% 2.3 mph E3.7 kmh E 4.6 mph7.4 kmh 29.84 in1010.5 mb - 0.00 in0.0 mm 0.00 in0.0 mm
01:55 AM 49.3°F9.6°C 47.7°F8.7°C 94% 3.5 mph E5.6 kmh E 5.8 mph9.3 kmh 29.84 in1010.5 mb - 0.00 in0.0 mm 0.00 in0.0 mm
02:00 AM 49.3°F9.6°C 47.7°F8.7°C 94% 2.3 mph E3.7 kmh E 3.5 mph5.6 kmh 29.84 in1010.5 mb - 0.00 in0.0 mm 0.00 in0.0 mm
02:10 AM 49.4°F9.7°C 47.8°F8.8°C 94% 2.3 mph E3.7 kmh E 4.6 mph7.4 kmh 29.84 in1010.5 mb - 0.00 in0.0 mm 0.00 in0.0 mm
02:15 AM 49.5°F9.7°C 47.8°F8.8°C 94% 3.5 mph ESE5.6 kmh ESE 3.5 mph5.6 kmh 29.84 in1010.5 mb - 0.00 in0.0 mm 0.00 in0.0 mm
02:20 AM 49.5°F9.7°C 47.8°F8.8°C 94% 2.3 mph E3.7 kmh E 3.5 mph5.6 kmh 29.83 in1010.2 mb - 0.00 in0.0 mm 0.00 in0.0 mm
02:25 AM 49.5°F9.7°C 47.8°F8.8°C 94% 2.3 mph E3.7 kmh E 8.1 mph13.0 kmh 29.84 in1010.5 mb - 0.00 in0.0 mm 0.00 in0.0 mm
02:30 AM 49.6°F9.8°C 47.9°F8.8°C 94% 2.3 mph E3.7 kmh E 3.5 mph5.6 kmh 29.84 in1010.5 mb - 0.00 in0.0 mm 0.00 in0.0 mm
02:35 AM 49.6°F9.8°C 47.9°F8.8°C 94% 4.6 mph E7.4 kmh E 5.8 mph9.3 kmh 29.84 in1010.5 mb - 0.00 in0.0 mm 0.00 in0.0 mm
02:40 AM 49.6°F9.8°C 48.0°F8.9°C 94% 2.3 mph E3.7 kmh E 4.6 mph7.4 kmh 29.84 in1010.5 mb - 0.00 in0.0 mm 0.00 in0.0 mm
02:45 AM 49.7°F9.8°C 48.0°F8.9°C 94% 3.5 mph ENE5.6 kmh ENE 3.5 mph5.6 kmh 29.83 in1010.2 mb - 0.00 in0.0 mm 0.00 in0.0 mm
02:50 AM 49.7°F9.8°C 48.0°F8.9°C 94% 2.3 mph ENE3.7 kmh ENE 3.5 mph5.6 kmh 29.83 in1010.2 mb - 0.00 in0.0 mm 0.00 in0.0 mm
02:55 AM 49.7°F9.8°C 48.0°F8.9°C 94% 2.3 mph E3.7 kmh E 3.5 mph5.6 kmh 29.83 in1010.2 mb - 0.00 in0.0 mm 0.00 in0.0 mm
03:00 AM 49.7°F9.8°C 48.1°F8.9°C 94% 2.3 mph E3.7 kmh E 6.9 mph11.1 kmh 29.83 in1010.2 mb - 0.00 in0.0 mm 0.00 in0.0 mm
03:10 AM 49.7°F9.8°C 48.1°F8.9°C 94% 3.5 mph E5.6 kmh E 8.1 mph13.0 kmh 29.83 in1010.2 mb - 0.00 in0.0 mm 0.00 in0.0 mm
03:15 AM 49.7°F9.8°C 48.1°F8.9°C 94% 3.5 mph ENE5.6 kmh ENE 6.9 mph11.1 kmh 29.83 in1010.2 mb - 0.00 in0.0 mm 0.00 in0.0 mm
03:20 AM 49.8°F9.9°C 48.1°F8.9°C 94% 3.5 mph ENE5.6 kmh ENE 4.6 mph7.4 kmh 29.83 in1010.2 mb - 0.00 in0.0 mm 0.00 in0.0 mm
03:25 AM 49.8°F9.9°C 48.1°F8.9°C 94% 3.5 mph E5.6 kmh E 5.8 mph9.3 kmh 29.83 in1010.2 mb - 0.00 in0.0 mm 0.00 in0.0 mm
03:30 AM 49.8°F9.9°C 48.1°F8.9°C 94% 4.6 mph ENE7.4 kmh ENE 8.1 mph13.0 kmh 29.83 in1010.2 mb - 0.00 in0.0 mm 0.00 in0.0 mm
03:35 AM 49.8°F9.9°C 48.2°F9.0°C 94% 5.8 mph E9.3 kmh E 8.1 mph13.0 kmh 29.83 in1010.2 mb - 0.00 in0.0 mm 0.00 in0.0 mm
03:40 AM 49.9°F9.9°C 48.2°F9.0°C 94% 2.3 mph ESE3.7 kmh ESE 3.5 mph5.6 kmh 29.84 in1010.5 mb - 0.00 in0.0 mm 0.00 in0.0 mm
03:45 AM 49.9°F9.9°C 48.3°F9.1°C 94% 3.5 mph ENE5.6 kmh ENE 4.6 mph7.4 kmh 29.83 in1010.2 mb - 0.00 in0.0 mm 0.00 in0.0 mm
03:50 AM 49.9°F9.9°C 48.3°F9.1°C 94% 3.5 mph NE5.6 kmh NE 8.1 mph13.0 kmh 29.83 in1010.2 mb - 0.00 in0.0 mm 0.00 in0.0 mm
03:55 AM 50.0°F10.0°C 48.3°F9.1°C 94% 3.5 mph ENE5.6 kmh ENE 8.1 mph13.0 kmh 29.83 in1010.2 mb - 0.00 in0.0 mm 0.00 in0.0 mm
04:00 AM 50.0°F10.0°C 48.3°F9.1°C 94% 2.3 mph E3.7 kmh E 4.6 mph7.4 kmh 29.83 in1010.2 mb - 0.00 in0.0 mm 0.00 in0.0 mm
04:10 AM 50.0°F10.0°C 48.3°F9.1°C 94% 2.3 mph ENE3.7 kmh ENE 3.5 mph5.6 kmh 29.83 in1010.2 mb - 0.00 in0.0 mm 0.00 in0.0 mm
04:15 AM 50.0°F10.0°C 48.3°F9.1°C 94% 4.6 mph E7.4 kmh E 8.1 mph13.0 kmh 29.83 in1010.2 mb - 0.00 in0.0 mm 0.00 in0.0 mm
04:20 AM 50.0°F10.0°C 48.3°F9.1°C 94% 4.6 mph E7.4 kmh E 6.9 mph11.1 kmh 29.83 in1010.2 mb - 0.00 in0.0 mm 0.00 in0.0 mm
04:25 AM 49.9°F9.9°C 48.3°F9.1°C 94% 5.8 mph E9.3 kmh E 8.1 mph13.0 kmh 29.83 in1010.2 mb - 0.00 in0.0 mm 0.00 in0.0 mm
04:30 AM 49.9°F9.9°C 48.3°F9.1°C 94% 5.8 mph E9.3 kmh E 10.4 mph16.7 kmh 29.83 in1010.2 mb - 0.00 in0.0 mm 0.00 in0.0 mm
04:35 AM 49.9°F9.9°C 48.3°F9.1°C 94% 2.3 mph E3.7 kmh E 8.1 mph13.0 kmh 29.83 in1010.2 mb - 0.00 in0.0 mm 0.00 in0.0 mm
04:40 AM 49.9°F9.9°C 48.2°F9.0°C 94% 2.3 mph ENE3.7 kmh ENE 3.5 mph5.6 kmh 29.83 in1010.2 mb - 0.00 in0.0 mm 0.00 in0.0 mm
04:45 AM 49.9°F9.9°C 48.2°F9.0°C 94% 3.5 mph ENE5.6 kmh ENE 3.5 mph5.6 kmh 29.83 in1010.2 mb - 0.00 in0.0 mm 0.00 in0.0 mm
04:50 AM 49.9°F9.9°C 48.3°F9.1°C 94% 2.3 mph E3.7 kmh E 3.5 mph5.6 kmh 29.82 in1009.8 mb - 0.00 in0.0 mm 0.00 in0.0 mm
04:55 AM 50.0°F10.0°C 48.3°F9.1°C 94% 4.6 mph E7.4 kmh E 6.9 mph11.1 kmh 29.82 in1009.8 mb - 0.00 in0.0 mm 0.00 in0.0 mm
05:00 AM 50.0°F10.0°C 48.3°F9.1°C 94% 2.3 mph E3.7 kmh E 3.5 mph5.6 kmh 29.83 in1010.2 mb - 0.00 in0.0 mm 0.00 in0.0 mm
05:10 AM 50.0°F10.0°C 48.3°F9.1°C 94% 3.5 mph E5.6 kmh E 4.6 mph7.4 kmh 29.82 in1009.8 mb - 0.00 in0.0 mm 0.00 in0.0 mm
05:15 AM 50.1°F10.1°C 48.4°F9.1°C 94% 2.3 mph E3.7 kmh E 8.1 mph13.0 kmh 29.82 in1009.8 mb - 0.00 in0.0 mm 0.00 in0.0 mm
05:20 AM 50.1°F10.1°C 48.4°F9.1°C 94% 4.6 mph E7.4 kmh E 6.9 mph11.1 kmh 29.82 in1009.8 mb - 0.00 in0.0 mm 0.00 in0.0 mm
05:25 AM 50.2°F10.1°C 48.5°F9.2°C 94% 3.5 mph ENE5.6 kmh ENE 6.9 mph11.1 kmh 29.82 in1009.8 mb - 0.00 in0.0 mm 0.00 in0.0 mm
05:30 AM 50.1°F10.1°C 48.5°F9.2°C 94% 3.5 mph E5.6 kmh E 4.6 mph7.4 kmh 29.82 in1009.8 mb - 0.00 in0.0 mm 0.00 in0.0 mm
05:35 AM 50.2°F10.1°C 48.5°F9.2°C 94% 3.5 mph E5.6 kmh E 6.9 mph11.1 kmh 29.82 in1009.8 mb - 0.00 in0.0 mm 0.00 in0.0 mm
05:40 AM 50.2°F10.1°C 48.5°F9.2°C 94% 3.5 mph E5.6 kmh E 4.6 mph7.4 kmh 29.82 in1009.8 mb - 0.00 in0.0 mm 0.00 in0.0 mm
05:45 AM 50.2°F10.1°C 48.5°F9.2°C 94% 3.5 mph ENE5.6 kmh ENE 4.6 mph7.4 kmh 29.82 in1009.8 mb - 0.00 in0.0 mm 0.00 in0.0 mm
05:50 AM 50.2°F10.1°C 48.5°F9.2°C 94% 4.6 mph E7.4 kmh E 8.1 mph13.0 kmh 29.82 in1009.8 mb - 0.00 in0.0 mm 0.00 in0.0 mm
05:55 AM 50.3°F10.2°C 48.6°F9.2°C 94% 2.3 mph ENE3.7 kmh ENE 4.6 mph7.4 kmh 29.82 in1009.8 mb - 0.00 in0.0 mm 0.00 in0.0 mm
06:00 AM 50.3°F10.2°C 48.6°F9.2°C 94% 4.6 mph ENE7.4 kmh ENE 8.1 mph13.0 kmh 29.82 in1009.8 mb - 0.00 in0.0 mm 0.00 in0.0 mm
06:10 AM 50.4°F10.2°C 48.7°F9.3°C 94% 3.5 mph ENE5.6 kmh ENE 6.9 mph11.1 kmh 29.82 in1009.8 mb - 0.00 in0.0 mm 0.00 in0.0 mm
06:15 AM 50.4°F10.2°C 48.7°F9.3°C 94% 6.9 mph E11.1 kmh E 9.2 mph14.8 kmh 29.83 in1010.2 mb - 0.00 in0.0 mm 0.00 in0.0 mm
06:20 AM 50.4°F10.2°C 48.7°F9.3°C 94% 6.9 mph ENE11.1 kmh ENE 11.5 mph18.5 kmh 29.83 in1010.2 mb - 0.00 in0.0 mm 0.00 in0.0 mm
06:25 AM 50.4°F10.2°C 48.7°F9.3°C 94% 6.9 mph E11.1 kmh E 11.5 mph18.5 kmh 29.82 in1009.8 mb - 0.00 in0.0 mm 0.00 in0.0 mm
06:30 AM 50.5°F10.3°C 48.8°F9.3°C 94% 3.5 mph E5.6 kmh E 8.1 mph13.0 kmh 29.83 in1010.2 mb - 0.00 in0.0 mm 0.00 in0.0 mm
06:35 AM 50.5°F10.3°C 48.8°F9.3°C 94% 3.5 mph E5.6 kmh E 4.6 mph7.4 kmh 29.82 in1009.8 mb - 0.00 in0.0 mm 0.00 in0.0 mm
06:40 AM 50.6°F10.3°C 48.9°F9.4°C 94% 3.5 mph E5.6 kmh E 4.6 mph7.4 kmh 29.82 in1009.8 mb - 0.00 in0.0 mm 0.00 in0.0 mm
06:45 AM 50.6°F10.3°C 49.2°F9.6°C 95% 3.5 mph E5.6 kmh E 6.9 mph11.1 kmh 29.82 in1009.8 mb - 0.00 in0.0 mm 0.00 in0.0 mm
06:50 AM 50.6°F10.3°C 49.2°F9.6°C 95% 3.5 mph E5.6 kmh E 8.1 mph13.0 kmh 29.82 in1009.8 mb - 0.00 in0.0 mm 0.00 in0.0 mm
06:55 AM 50.7°F10.4°C 49.3°F9.6°C 95% 3.5 mph E5.6 kmh E 6.9 mph11.1 kmh 29.82 in1009.8 mb - 0.00 in0.0 mm 0.00 in0.0 mm
07:00 AM 50.9°F10.5°C 49.5°F9.7°C 95% 3.5 mph E5.6 kmh E 6.9 mph11.1 kmh 29.83 in1010.2 mb - 0.00 in0.0 mm 0.00 in0.0 mm
07:10 AM 51.2°F10.7°C 49.5°F9.7°C 94% 3.5 mph E5.6 kmh E 5.8 mph9.3 kmh 29.83 in1010.2 mb - 0.00 in0.0 mm 0.00 in0.0 mm
07:15 AM 51.3°F10.7°C 49.9°F9.9°C 95% 4.6 mph E7.4 kmh E 9.2 mph14.8 kmh 29.82 in1009.8 mb - 0.00 in0.0 mm 0.00 in0.0 mm
07:20 AM 51.3°F10.7°C 49.9°F9.9°C 95% 4.6 mph E7.4 kmh E 6.9 mph11.1 kmh 29.82 in1009.8 mb - 0.00 in0.0 mm 0.00 in0.0 mm
07:25 AM 51.4°F10.8°C 50.0°F10.0°C 95% 4.6 mph E7.4 kmh E 10.4 mph16.7 kmh 29.82 in1009.8 mb - 0.00 in0.0 mm 0.00 in0.0 mm
07:30 AM 51.5°F10.8°C 50.1°F10.1°C 95% 2.3 mph E3.7 kmh E 3.5 mph5.6 kmh 29.83 in1010.2 mb - 0.00 in0.0 mm 0.00 in0.0 mm
07:35 AM 51.6°F10.9°C 50.2°F10.1°C 95% 4.6 mph E7.4 kmh E 6.9 mph11.1 kmh 29.83 in1010.2 mb - 0.00 in0.0 mm 0.00 in0.0 mm
07:40 AM 51.7°F10.9°C 50.3°F10.2°C 95% 5.8 mph E9.3 kmh E 8.1 mph13.0 kmh 29.83 in1010.2 mb - 0.00 in0.0 mm 0.00 in0.0 mm
07:45 AM 51.7°F10.9°C 50.3°F10.2°C 95% 5.8 mph E9.3 kmh E 11.5 mph18.5 kmh 29.82 in1009.8 mb - 0.00 in0.0 mm 0.00 in0.0 mm
07:50 AM 51.7°F10.9°C 50.1°F10.1°C 94% 3.5 mph E5.6 kmh E 3.5 mph5.6 kmh 29.82 in1009.8 mb - 0.00 in0.0 mm 0.00 in0.0 mm
07:55 AM 51.9°F11.1°C 50.2°F10.1°C 94% 4.6 mph E7.4 kmh E 11.5 mph18.5 kmh 29.82 in1009.8 mb - 0.00 in0.0 mm 0.00 in0.0 mm
08:00 AM 51.9°F11.1°C 50.5°F10.3°C 95% 3.5 mph SE5.6 kmh SE 6.9 mph11.1 kmh 29.83 in1010.2 mb - 0.00 in0.0 mm 0.00 in0.0 mm
08:10 AM 52.1°F11.2°C 50.7°F10.4°C 95% 6.9 mph E11.1 kmh E 8.1 mph13.0 kmh 29.82 in1009.8 mb - 0.00 in0.0 mm 0.00 in0.0 mm
08:15 AM 52.4°F11.3°C 51.0°F10.6°C 95% 4.6 mph ESE7.4 kmh ESE 8.1 mph13.0 kmh 29.83 in1010.2 mb - 0.00 in0.0 mm 0.00 in0.0 mm
08:20 AM 52.4°F11.3°C 51.0°F10.6°C 95% 4.6 mph E7.4 kmh E 10.4 mph16.7 kmh 29.83 in1010.2 mb - 0.00 in0.0 mm 0.00 in0.0 mm
08:25 AM 52.2°F11.2°C 50.6°F10.3°C 94% 5.8 mph E9.3 kmh E 8.1 mph13.0 kmh 29.83 in1010.2 mb - 0.00 in0.0 mm 0.00 in0.0 mm
08:30 AM 52.3°F11.3°C 50.7°F10.4°C 94% 5.8 mph E9.3 kmh E 9.2 mph14.8 kmh 29.83 in1010.2 mb - 0.00 in0.0 mm 0.00 in0.0 mm
08:35 AM 52.4°F11.3°C 50.7°F10.4°C 94% 6.9 mph E11.1 kmh E 10.4 mph16.7 kmh 29.83 in1010.2 mb - 0.00 in0.0 mm 0.00 in0.0 mm
08:40 AM 52.6°F11.4°C 51.2°F10.7°C 95% 3.5 mph E5.6 kmh E 5.8 mph9.3 kmh 29.83 in1010.2 mb - 0.00 in0.0 mm 0.00 in0.0 mm
08:45 AM 52.6°F11.4°C 51.0°F10.6°C 94% 4.6 mph E7.4 kmh E 8.1 mph13.0 kmh 29.83 in1010.2 mb - 0.00 in0.0 mm 0.00 in0.0 mm
08:50 AM 52.6°F11.4°C 50.9°F10.5°C 94% 4.6 mph ESE7.4 kmh ESE 8.1 mph13.0 kmh 29.83 in1010.2 mb - 0.00 in0.0 mm 0.00 in0.0 mm
08:55 AM 53.0°F11.7°C 51.3°F10.7°C 94% 2.3 mph ESE3.7 kmh ESE 4.6 mph7.4 kmh 29.83 in1010.2 mb - 0.00 in0.0 mm 0.00 in0.0 mm
09:00 AM 53.2°F11.8°C 51.5°F10.8°C 94% 3.5 mph ESE5.6 kmh ESE 6.9 mph11.1 kmh 29.83 in1010.2 mb - 0.00 in0.0 mm 0.00 in0.0 mm
09:10 AM 53.3°F11.8°C 51.3°F10.7°C 93% 6.9 mph ESE11.1 kmh ESE 10.4 mph16.7 kmh 29.83 in1010.2 mb - 0.00 in0.0 mm 0.00 in0.0 mm
09:15 AM 53.6°F12.0°C 51.6°F10.9°C 93% 6.9 mph E11.1 kmh E 8.1 mph13.0 kmh 29.83 in1010.2 mb - 0.00 in0.0 mm 0.00 in0.0 mm
09:20 AM 54.0°F12.2°C 52.0°F11.1°C 93% 4.6 mph ESE7.4 kmh ESE 6.9 mph11.1 kmh 29.83 in1010.2 mb - 0.00 in0.0 mm 0.00 in0.0 mm
09:25 AM 54.2°F12.3°C 51.9°F11.1°C 92% 5.8 mph E9.3 kmh E 8.1 mph13.0 kmh 29.83 in1010.2 mb - 0.00 in0.0 mm 0.00 in0.0 mm
09:30 AM 54.4°F12.4°C 51.8°F11.0°C 91% 4.6 mph ENE7.4 kmh ENE 6.9 mph11.1 kmh 29.83 in1010.2 mb - 0.00 in0.0 mm 0.00 in0.0 mm
09:35 AM 54.6°F12.6°C 51.7°F10.9°C 90% 6.9 mph E11.1 kmh E 9.2 mph14.8 kmh 29.83 in1010.2 mb - 0.00 in0.0 mm 0.00 in0.0 mm
09:40 AM 54.3°F12.4°C 51.8°F11.0°C 91% 5.8 mph E9.3 kmh E 9.2 mph14.8 kmh 29.83 in1010.2 mb - 0.00 in0.0 mm 0.00 in0.0 mm
09:45 AM 55.2°F12.9°C 52.3°F11.3°C 90% 5.8 mph E9.3 kmh E 8.1 mph13.0 kmh 29.82 in1009.8 mb - 0.00 in0.0 mm 0.00 in0.0 mm
09:50 AM 55.8°F13.2°C 52.9°F11.6°C 90% 4.6 mph E7.4 kmh E 8.1 mph13.0 kmh 29.82 in1009.8 mb - 0.00 in0.0 mm 0.00 in0.0 mm
09:55 AM 56.2°F13.4°C 52.7°F11.5°C 88% 4.6 mph E7.4 kmh E 9.2 mph14.8 kmh 29.83 in1010.2 mb - 0.00 in0.0 mm 0.00 in0.0 mm
10:00 AM 56.5°F13.6°C 53.0°F11.7°C 88% 4.6 mph E7.4 kmh E 9.2 mph14.8 kmh 29.83 in1010.2 mb - 0.00 in0.0 mm 0.00 in0.0 mm
10:10 AM 57.3°F14.1°C 53.1°F11.7°C 86% 4.6 mph ESE7.4 kmh ESE 8.1 mph13.0 kmh 29.82 in1009.8 mb - 0.00 in0.0 mm 0.00 in0.0 mm
10:15 AM 57.4°F14.1°C 53.2°F11.8°C 86% 8.1 mph E13.0 kmh E 11.5 mph18.5 kmh 29.82 in1009.8 mb - 0.00 in0.0 mm 0.00 in0.0 mm
10:20 AM 57.1°F13.9°C 52.7°F11.5°C 85% 8.1 mph E13.0 kmh E 12.7 mph20.4 kmh 29.82 in1009.8 mb - 0.00 in0.0 mm 0.00 in0.0 mm
10:25 AM 57.6°F14.2°C 53.4°F11.9°C 86% 5.8 mph E9.3 kmh E 8.1 mph13.0 kmh 29.82 in1009.8 mb - 0.00 in0.0 mm 0.00 in0.0 mm
10:30 AM 58.6°F14.8°C 53.8°F12.1°C 84% 6.9 mph ENE11.1 kmh ENE 11.5 mph18.5 kmh 29.82 in1009.8 mb - 0.00 in0.0 mm 0.00 in0.0 mm
10:35 AM 58.4°F14.7°C 53.6°F12.0°C 84% 9.2 mph E14.8 kmh E 11.5 mph18.5 kmh 29.83 in1010.2 mb - 0.00 in0.0 mm 0.00 in0.0 mm
10:40 AM 58.9°F14.9°C 53.8°F12.1°C 83% 5.8 mph E9.3 kmh E 11.5 mph18.5 kmh 29.83 in1010.2 mb - 0.00 in0.0 mm 0.00 in0.0 mm
10:45 AM 58.4°F14.7°C 53.6°F12.0°C 84% 5.8 mph ENE9.3 kmh ENE 8.1 mph13.0 kmh 29.83 in1010.2 mb - 0.00 in0.0 mm 0.00 in0.0 mm
10:50 AM 58.4°F14.7°C 53.2°F11.8°C 83% 8.1 mph E13.0 kmh E 12.7 mph20.4 kmh 29.83 in1010.2 mb - 0.00 in0.0 mm 0.00 in0.0 mm
10:55 AM 58.3°F14.6°C 53.1°F11.7°C 83% 4.6 mph E7.4 kmh E 8.1 mph13.0 kmh 29.82 in1009.8 mb - 0.00 in0.0 mm 0.00 in0.0 mm
11:00 AM 58.1°F14.5°C 52.6°F11.4°C 82% 8.1 mph E13.0 kmh E 10.4 mph16.7 kmh 29.83 in1010.2 mb - 0.00 in0.0 mm 0.00 in0.0 mm
11:10 AM 57.2°F14.0°C 52.7°F11.5°C 85% 8.1 mph NE13.0 kmh NE 12.7 mph20.4 kmh 29.83 in1010.2 mb - 0.00 in0.0 mm 0.00 in0.0 mm
11:15 AM 57.3°F14.1°C 52.8°F11.6°C 85% 8.1 mph E13.0 kmh E 10.4 mph16.7 kmh 29.83 in1010.2 mb - 0.00 in0.0 mm 0.00 in0.0 mm
11:20 AM 58.3°F14.6°C 53.8°F12.1°C 85% 4.6 mph E7.4 kmh E 10.4 mph16.7 kmh 29.83 in1010.2 mb - 0.00 in0.0 mm 0.00 in0.0 mm
11:25 AM 57.7°F14.3°C 52.6°F11.4°C 83% 4.6 mph NE7.4 kmh NE 9.2 mph14.8 kmh 29.83 in1010.2 mb - 0.00 in0.0 mm 0.00 in0.0 mm
11:30 AM 57.6°F14.2°C 52.8°F11.6°C 84% 5.8 mph ENE9.3 kmh ENE 10.4 mph16.7 kmh 29.83 in1010.2 mb - 0.00 in0.0 mm 0.00 in0.0 mm
11:35 AM 57.5°F14.2°C 52.7°F11.5°C 84% 5.8 mph E9.3 kmh E 10.4 mph16.7 kmh 29.83 in1010.2 mb - 0.00 in0.0 mm 0.00 in0.0 mm
11:40 AM 57.8°F14.3°C 52.7°F11.5°C 83% 6.9 mph ENE11.1 kmh ENE 11.5 mph18.5 kmh 29.83 in1010.2 mb - 0.00 in0.0 mm 0.00 in0.0 mm
11:45 AM 59.4°F15.2°C 53.6°F12.0°C 81% 8.1 mph E13.0 kmh E 12.7 mph20.4 kmh 29.83 in1010.2 mb - 0.00 in0.0 mm 0.00 in0.0 mm
11:50 AM 59.2°F15.1°C 53.1°F11.7°C 80% 6.9 mph E11.1 kmh E 11.5 mph18.5 kmh 29.83 in1010.2 mb - 0.00 in0.0 mm 0.00 in0.0 mm
11:55 AM 59.1°F15.1°C 53.3°F11.8°C 81% 6.9 mph E11.1 kmh E 9.2 mph14.8 kmh 29.82 in1009.8 mb - 0.00 in0.0 mm 0.00 in0.0 mm
12:00 PM 58.8°F14.9°C 52.7°F11.5°C 80% 5.8 mph E9.3 kmh E 9.2 mph14.8 kmh 29.83 in1010.2 mb - 0.00 in0.0 mm 0.00 in0.0 mm
12:10 PM 60.7°F15.9°C 54.5°F12.5°C 80% 5.8 mph E9.3 kmh E 11.5 mph18.5 kmh 29.82 in1009.8 mb - 0.00 in0.0 mm 0.00 in0.0 mm
12:15 PM 60.8°F16.0°C 54.3°F12.4°C 79% 6.9 mph E11.1 kmh E 11.5 mph18.5 kmh 29.82 in1009.8 mb - 0.00 in0.0 mm 0.00 in0.0 mm
12:20 PM 61.2°F16.2°C 54.3°F12.4°C 78% 6.9 mph E11.1 kmh E 9.2 mph14.8 kmh 29.82 in1009.8 mb - 0.00 in0.0 mm 0.00 in0.0 mm
12:25 PM 61.6°F16.4°C 54.6°F12.6°C 78% 5.8 mph SE9.3 kmh SE 9.2 mph14.8 kmh 29.82 in1009.8 mb - 0.00 in0.0 mm 0.00 in0.0 mm
12:30 PM 61.5°F16.4°C 54.2°F12.3°C 77% 5.8 mph ENE9.3 kmh ENE 10.4 mph16.7 kmh 29.82 in1009.8 mb - 0.00 in0.0 mm 0.00 in0.0 mm
12:35 PM 61.4°F16.3°C 54.2°F12.3°C 77% 8.1 mph E13.0 kmh E 13.8 mph22.2 kmh 29.82 in1009.8 mb - 0.00 in0.0 mm 0.00 in0.0 mm
12:40 PM 61.3°F16.3°C 54.3°F12.4°C 78% 5.8 mph ENE9.3 kmh ENE 12.7 mph20.4 kmh 29.82 in1009.8 mb - 0.00 in0.0 mm 0.00 in0.0 mm
12:45 PM 62.0°F16.7°C 54.7°F12.6°C 77% 6.9 mph E11.1 kmh E 11.5 mph18.5 kmh 29.82 in1009.8 mb - 0.00 in0.0 mm 0.00 in0.0 mm
12:50 PM 61.4°F16.3°C 54.5°F12.5°C 78% 5.8 mph E9.3 kmh E 10.4 mph16.7 kmh 29.82 in1009.8 mb - 0.00 in0.0 mm 0.00 in0.0 mm
12:55 PM 62.3°F16.8°C 55.4°F13.0°C 78% 6.9 mph ENE11.1 kmh ENE 10.4 mph16.7 kmh 29.82 in1009.8 mb - 0.00 in0.0 mm 0.00 in0.0 mm
01:00 PM 62.1°F16.7°C 54.8°F12.7°C 77% 8.1 mph E13.0 kmh E 10.4 mph16.7 kmh 29.82 in1009.8 mb - 0.00 in0.0 mm 0.00 in0.0 mm
01:10 PM 63.4°F17.4°C 55.3°F12.9°C 75% 6.9 mph E11.1 kmh E 10.4 mph16.7 kmh 29.82 in1009.8 mb - 0.00 in0.0 mm 0.00 in0.0 mm
01:15 PM 63.6°F17.6°C 55.9°F13.3°C 76% 5.8 mph ENE9.3 kmh ENE 10.4 mph16.7 kmh 29.81 in1009.5 mb - 0.00 in0.0 mm 0.00 in0.0 mm
01:20 PM 64.1°F17.8°C 55.7°F13.2°C 74% 6.9 mph E11.1 kmh E 9.2 mph14.8 kmh 29.81 in1009.5 mb - 0.00 in0.0 mm 0.00 in0.0 mm
01:25 PM 64.4°F18.0°C 55.9°F13.3°C 74% 6.9 mph ENE11.1 kmh ENE 12.7 mph20.4 kmh 29.81 in1009.5 mb - 0.00 in0.0 mm 0.00 in0.0 mm
01:30 PM 64.2°F17.9°C 55.7°F13.2°C 74% 8.1 mph E13.0 kmh E 12.7 mph20.4 kmh 29.81 in1009.5 mb - 0.00 in0.0 mm 0.00 in0.0 mm
01:35 PM 64.1°F17.8°C 55.3°F12.9°C 73% 4.6 mph E7.4 kmh E 5.8 mph9.3 kmh 29.81 in1009.5 mb - 0.00 in0.0 mm 0.00 in0.0 mm
01:40 PM 64.8°F18.2°C 56.4°F13.6°C 74% 5.8 mph E9.3 kmh E 11.5 mph18.5 kmh 29.81 in1009.5 mb - 0.00 in0.0 mm 0.00 in0.0 mm
01:45 PM 65.0°F18.3°C 56.1°F13.4°C 73% 8.1 mph E13.0 kmh E 15.0 mph24.1 kmh 29.81 in1009.5 mb - 0.00 in0.0 mm 0.00 in0.0 mm
01:50 PM 64.7°F18.2°C 55.8°F13.2°C 73% 6.9 mph ESE11.1 kmh ESE 9.2 mph14.8 kmh 29.81 in1009.5 mb - 0.00 in0.0 mm 0.00 in0.0 mm
01:55 PM 65.0°F18.3°C 56.5°F13.6°C 74% 4.6 mph E7.4 kmh E 10.4 mph16.7 kmh 29.81 in1009.5 mb - 0.00 in0.0 mm 0.00 in0.0 mm
02:00 PM 64.8°F18.2°C 56.3°F13.5°C 74% 6.9 mph E11.1 kmh E 11.5 mph18.5 kmh 29.81 in1009.5 mb - 0.00 in0.0 mm 0.00 in0.0 mm
02:10 PM 65.3°F18.5°C 56.0°F13.3°C 72% 6.9 mph E11.1 kmh E 11.5 mph18.5 kmh 29.80 in1009.1 mb - 0.00 in0.0 mm 0.00 in0.0 mm
02:15 PM 65.9°F18.8°C 56.6°F13.7°C 72% 5.8 mph SE9.3 kmh SE 11.5 mph18.5 kmh 29.80 in1009.1 mb - 0.00 in0.0 mm 0.00 in0.0 mm
02:20 PM 66.0°F18.9°C 57.1°F13.9°C 73% 5.8 mph E9.3 kmh E 6.9 mph11.1 kmh 29.80 in1009.1 mb - 0.00 in0.0 mm 0.00 in0.0 mm
02:25 PM 65.6°F18.7°C 55.9°F13.3°C 71% 5.8 mph E9.3 kmh E 9.2 mph14.8 kmh 29.80 in1009.1 mb - 0.00 in0.0 mm 0.00 in0.0 mm
02:30 PM 65.7°F18.7°C 55.6°F13.1°C 70% 9.2 mph E14.8 kmh E 12.7 mph20.4 kmh 29.80 in1009.1 mb - 0.00 in0.0 mm 0.00 in0.0 mm
02:35 PM 65.9°F18.8°C 56.6°F13.7°C 72% 5.8 mph E9.3 kmh E 11.5 mph18.5 kmh 29.80 in1009.1 mb - 0.00 in0.0 mm 0.00 in0.0 mm
02:40 PM 66.0°F18.9°C 56.4°F13.6°C 71% 6.9 mph E11.1 kmh E 9.2 mph14.8 kmh 29.80 in1009.1 mb - 0.00 in0.0 mm 0.00 in0.0 mm
02:45 PM 65.9°F18.8°C 56.3°F13.5°C 71% 8.1 mph ENE13.0 kmh ENE 12.7 mph20.4 kmh 29.80 in1009.1 mb - 0.00 in0.0 mm 0.00 in0.0 mm
02:50 PM 66.3°F19.1°C 56.2°F13.4°C 70% 5.8 mph E9.3 kmh E 11.5 mph18.5 kmh 29.80 in1009.1 mb - 0.00 in0.0 mm 0.00 in0.0 mm
02:55 PM 66.4°F19.1°C 56.7°F13.7°C 71% 6.9 mph ENE11.1 kmh ENE 11.5 mph18.5 kmh 29.80 in1009.1 mb - 0.00 in0.0 mm 0.00 in0.0 mm
03:00 PM 66.3°F19.1°C 56.6°F13.7°C 71% 6.9 mph E11.1 kmh E 11.5 mph18.5 kmh 29.80 in1009.1 mb - 0.00 in0.0 mm 0.00 in0.0 mm
03:10 PM 66.2°F19.0°C 56.5°F13.6°C 71% 6.9 mph E11.1 kmh E 10.4 mph16.7 kmh 29.80 in1009.1 mb - 0.00 in0.0 mm 0.00 in0.0 mm
03:15 PM 66.4°F19.1°C 56.3°F13.5°C 70% 6.9 mph E11.1 kmh E 11.5 mph18.5 kmh 29.80 in1009.1 mb - 0.00 in0.0 mm 0.00 in0.0 mm
03:20 PM 66.1°F18.9°C 56.5°F13.6°C 71% 8.1 mph E13.0 kmh E 13.8 mph22.2 kmh 29.79 in1008.8 mb - 0.00 in0.0 mm 0.00 in0.0 mm
03:25 PM 66.7°F19.3°C 56.6°F13.7°C 70% 5.8 mph E9.3 kmh E 11.5 mph18.5 kmh 29.80 in1009.1 mb - 0.00 in0.0 mm 0.00 in0.0 mm
03:30 PM 66.2°F19.0°C 56.5°F13.6°C 71% 6.9 mph ENE11.1 kmh ENE 13.8 mph22.2 kmh 29.80 in1009.1 mb - 0.00 in0.0 mm 0.00 in0.0 mm
03:35 PM 66.4°F19.1°C 56.8°F13.8°C 71% 8.1 mph E13.0 kmh E 10.4 mph16.7 kmh 29.80 in1009.1 mb - 0.00 in0.0 mm 0.00 in0.0 mm
03:40 PM 66.1°F18.9°C 56.4°F13.6°C 71% 5.8 mph E9.3 kmh E 10.4 mph16.7 kmh 29.80 in1009.1 mb - 0.00 in0.0 mm 0.00 in0.0 mm
03:45 PM 66.1°F18.9°C 56.4°F13.6°C 71% 5.8 mph ESE9.3 kmh ESE 9.2 mph14.8 kmh 29.80 in1009.1 mb - 0.00 in0.0 mm 0.00 in0.0 mm
03:50 PM 66.4°F19.1°C 56.7°F13.7°C 71% 6.9 mph E11.1 kmh E 11.5 mph18.5 kmh 29.80 in1009.1 mb - 0.00 in0.0 mm 0.00 in0.0 mm
03:55 PM 66.5°F19.2°C 56.8°F13.8°C 71% 5.8 mph E9.3 kmh E 9.2 mph14.8 kmh 29.80 in1009.1 mb - 0.00 in0.0 mm 0.00 in0.0 mm
04:00 PM 66.6°F19.2°C 56.9°F13.8°C 71% 6.9 mph ENE11.1 kmh ENE 9.2 mph14.8 kmh 29.80 in1009.1 mb - 0.00 in0.0 mm 0.00 in0.0 mm
04:10 PM 65.8°F18.8°C 56.5°F13.6°C 72% 5.8 mph E9.3 kmh E 9.2 mph14.8 kmh 29.79 in1008.8 mb - 0.00 in0.0 mm 0.00 in0.0 mm
04:15 PM 66.0°F18.9°C 56.3°F13.5°C 71% 8.1 mph E13.0 kmh E 12.7 mph20.4 kmh 29.79 in1008.8 mb - 0.00 in0.0 mm 0.00 in0.0 mm
04:20 PM 65.9°F18.8°C 56.6°F13.7°C 72% 4.6 mph E7.4 kmh E 9.2 mph14.8 kmh 29.79 in1008.8 mb - 0.00 in0.0 mm 0.00 in0.0 mm
04:25 PM 65.9°F18.8°C 56.6°F13.7°C 72% 6.9 mph E11.1 kmh E 10.4 mph16.7 kmh 29.79 in1008.8 mb - 0.00 in0.0 mm 0.00 in0.0 mm
04:30 PM 65.8°F18.8°C 56.1°F13.4°C 71% 6.9 mph E11.1 kmh E 11.5 mph18.5 kmh 29.79 in1008.8 mb - 0.00 in0.0 mm 0.00 in0.0 mm
04:35 PM 65.8°F18.8°C 56.2°F13.4°C 71% 6.9 mph E11.1 kmh E 9.2 mph14.8 kmh 29.79 in1008.8 mb - 0.00 in0.0 mm 0.00 in0.0 mm
04:40 PM 65.8°F18.8°C 56.2°F13.4°C 71% 9.2 mph E14.8 kmh E 13.8 mph22.2 kmh 29.79 in1008.8 mb - 0.00 in0.0 mm 0.00 in0.0 mm
04:45 PM 65.6°F18.7°C 55.9°F13.3°C 71% 6.9 mph E11.1 kmh E 11.5 mph18.5 kmh 29.79 in1008.8 mb - 0.00 in0.0 mm 0.00 in0.0 mm
04:50 PM 65.5°F18.6°C 56.2°F13.4°C 72% 6.9 mph E11.1 kmh E 11.5 mph18.5 kmh 29.79 in1008.8 mb - 0.00 in0.0 mm 0.00 in0.0 mm
04:55 PM 65.3°F18.5°C 56.0°F13.3°C 72% 5.8 mph E9.3 kmh E 13.8 mph22.2 kmh 29.79 in1008.8 mb - 0.00 in0.0 mm 0.00 in0.0 mm
05:00 PM 65.0°F18.3°C 55.7°F13.2°C 72% 9.2 mph ENE14.8 kmh ENE 12.7 mph20.4 kmh 29.79 in1008.8 mb - 0.00 in0.0 mm 0.00 in0.0 mm
05:10 PM 64.4°F18.0°C 55.5°F13.1°C 73% 9.2 mph E14.8 kmh E 11.5 mph18.5 kmh 29.79 in1008.8 mb - 0.00 in0.0 mm 0.00 in0.0 mm
05:15 PM 64.4°F18.0°C 55.5°F13.1°C 73% 8.1 mph ESE13.0 kmh ESE 11.5 mph18.5 kmh 29.79 in1008.8 mb - 0.00 in0.0 mm 0.00 in0.0 mm
05:20 PM 64.0°F17.8°C 55.2°F12.9°C 73% 5.8 mph E9.3 kmh E 13.8 mph22.2 kmh 29.79 in1008.8 mb - 0.00 in0.0 mm 0.00 in0.0 mm
05:25 PM 64.1°F17.8°C 55.3°F12.9°C 73% 6.9 mph E11.1 kmh E 13.8 mph22.2 kmh 29.79 in1008.8 mb - 0.00 in0.0 mm 0.00 in0.0 mm
05:30 PM 64.3°F17.9°C 55.5°F13.1°C 73% 6.9 mph E11.1 kmh E 11.5 mph18.5 kmh 29.79 in1008.8 mb - 0.00 in0.0 mm 0.00 in0.0 mm
05:35 PM 64.0°F17.8°C 54.8°F12.7°C 72% 8.1 mph E13.0 kmh E 12.7 mph20.4 kmh 29.78 in1008.5 mb - 0.00 in0.0 mm 0.00 in0.0 mm
05:40 PM 64.1°F17.8°C 55.2°F12.9°C 73% 8.1 mph E13.0 kmh E 11.5 mph18.5 kmh 29.78 in1008.5 mb - 0.00 in0.0 mm 0.00 in0.0 mm
05:45 PM 63.9°F17.7°C 55.1°F12.8°C 73% 8.1 mph E13.0 kmh E 13.8 mph22.2 kmh 29.78 in1008.5 mb - 0.00 in0.0 mm 0.00 in0.0 mm
05:50 PM 64.2°F17.9°C 55.7°F13.2°C 74% 4.6 mph E7.4 kmh E 6.9 mph11.1 kmh 29.78 in1008.5 mb - 0.00 in0.0 mm 0.00 in0.0 mm
05:55 PM 64.1°F17.8°C 55.7°F13.2°C 74% 4.6 mph E7.4 kmh E 5.8 mph9.3 kmh 29.78 in1008.5 mb - 0.00 in0.0 mm 0.00 in0.0 mm
06:00 PM 64.3°F17.9°C 55.5°F13.1°C 73% 5.8 mph ESE9.3 kmh ESE 9.2 mph14.8 kmh 29.79 in1008.8 mb - 0.00 in0.0 mm 0.00 in0.0 mm
06:10 PM 63.6°F17.6°C 54.8°F12.7°C 73% 5.8 mph E9.3 kmh E 11.5 mph18.5 kmh 29.79 in1008.8 mb - 0.00 in0.0 mm 0.00 in0.0 mm
06:15 PM 63.5°F17.5°C 54.7°F12.6°C 73% 8.1 mph E13.0 kmh E 12.7 mph20.4 kmh 29.79 in1008.8 mb - 0.00 in0.0 mm 0.00 in0.0 mm
06:20 PM 63.4°F17.4°C 54.6°F12.6°C 73% 5.8 mph E9.3 kmh E 9.2 mph14.8 kmh 29.79 in1008.8 mb - 0.00 in0.0 mm 0.00 in0.0 mm
06:25 PM 63.1°F17.3°C 54.3°F12.4°C 73% 8.1 mph E13.0 kmh E 16.1 mph25.9 kmh 29.79 in1008.8 mb - 0.00 in0.0 mm 0.00 in0.0 mm
06:30 PM 62.9°F17.2°C 54.5°F12.5°C 74% 6.9 mph E11.1 kmh E 11.5 mph18.5 kmh 29.79 in1008.8 mb - 0.00 in0.0 mm 0.00 in0.0 mm
06:35 PM 62.9°F17.2°C 54.5°F12.5°C 74% 5.8 mph E9.3 kmh E 10.4 mph16.7 kmh 29.79 in1008.8 mb - 0.00 in0.0 mm 0.00 in0.0 mm
06:40 PM 62.9°F17.2°C 54.5°F12.5°C 74% 4.6 mph E7.4 kmh E 9.2 mph14.8 kmh 29.79 in1008.8 mb - 0.00 in0.0 mm 0.00 in0.0 mm
06:45 PM 63.0°F17.2°C 54.6°F12.6°C 74% 6.9 mph E11.1 kmh E 10.4 mph16.7 kmh 29.79 in1008.8 mb - 0.00 in0.0 mm 0.00 in0.0 mm
06:50 PM 62.8°F17.1°C 54.4°F12.4°C 74% 5.8 mph E9.3 kmh E 10.4 mph16.7 kmh 29.79 in1008.8 mb - 0.00 in0.0 mm 0.00 in0.0 mm
06:55 PM 62.5°F16.9°C 54.1°F12.3°C 74% 5.8 mph E9.3 kmh E 10.4 mph16.7 kmh 29.79 in1008.8 mb - 0.00 in0.0 mm 0.00 in0.0 mm
07:00 PM 62.2°F16.8°C 53.5°F11.9°C 73% 6.9 mph E11.1 kmh E 9.2 mph14.8 kmh 29.79 in1008.8 mb - 0.00 in0.0 mm 0.00 in0.0 mm
07:10 PM 61.5°F16.4°C 52.8°F11.6°C 73% 8.1 mph E13.0 kmh E 13.8 mph22.2 kmh 29.79 in1008.8 mb - 0.00 in0.0 mm 0.00 in0.0 mm
07:15 PM 61.2°F16.2°C 52.5°F11.4°C 73% 6.9 mph E11.1 kmh E 9.2 mph14.8 kmh 29.79 in1008.8 mb - 0.00 in0.0 mm 0.00 in0.0 mm
07:20 PM 61.0°F16.1°C 52.7°F11.5°C 74% 4.6 mph E7.4 kmh E 10.4 mph16.7 kmh 29.79 in1008.8 mb - 0.00 in0.0 mm 0.00 in0.0 mm
07:25 PM 60.7°F15.9°C 52.4°F11.3°C 74% 6.9 mph E11.1 kmh E 9.2 mph14.8 kmh 29.79 in1008.8 mb - 0.00 in0.0 mm 0.00 in0.0 mm
07:30 PM 60.6°F15.9°C 52.6°F11.4°C 75% 4.6 mph E7.4 kmh E 8.1 mph13.0 kmh 29.79 in1008.8 mb - 0.00 in0.0 mm 0.00 in0.0 mm
07:35 PM 60.4°F15.8°C 52.5°F11.4°C 75% 6.9 mph E11.1 kmh E 10.4 mph16.7 kmh 29.79 in1008.8 mb - 0.00 in0.0 mm 0.00 in0.0 mm
07:40 PM 60.3°F15.7°C 52.3°F11.3°C 75% 5.8 mph E9.3 kmh E 8.1 mph13.0 kmh 29.79 in1008.8 mb - 0.00 in0.0 mm 0.00 in0.0 mm
07:45 PM 60.0°F15.6°C 52.4°F11.3°C 76% 5.8 mph E9.3 kmh E 10.4 mph16.7 kmh 29.79 in1008.8 mb - 0.00 in0.0 mm 0.00 in0.0 mm
07:50 PM 59.9°F15.5°C 52.3°F11.3°C 76% 5.8 mph E9.3 kmh E 8.1 mph13.0 kmh 29.79 in1008.8 mb - 0.00 in0.0 mm 0.00 in0.0 mm
07:55 PM 59.6°F15.3°C 52.4°F11.3°C 77% 4.6 mph E7.4 kmh E 8.1 mph13.0 kmh 29.79 in1008.8 mb - 0.00 in0.0 mm 0.00 in0.0 mm
08:00 PM 59.4°F15.2°C 52.2°F11.2°C 77% 3.5 mph E5.6 kmh E 8.1 mph13.0 kmh 29.79 in1008.8 mb - 0.00 in0.0 mm 0.00 in0.0 mm
08:10 PM 59.1°F15.1°C 52.2°F11.2°C 78% 8.1 mph E13.0 kmh E 13.8 mph22.2 kmh 29.79 in1008.8 mb - 0.00 in0.0 mm 0.00 in0.0 mm
08:15 PM 58.9°F14.9°C 52.1°F11.2°C 78% 5.8 mph E9.3 kmh E 9.2 mph14.8 kmh 29.80 in1009.1 mb - 0.00 in0.0 mm 0.00 in0.0 mm
08:20 PM 58.7°F14.8°C 51.9°F11.1°C 78% 5.8 mph E9.3 kmh E 6.9 mph11.1 kmh 29.80 in1009.1 mb - 0.00 in0.0 mm 0.00 in0.0 mm
08:25 PM 58.6°F14.8°C 51.8°F11.0°C 78% 4.6 mph E7.4 kmh E 4.6 mph7.4 kmh 29.80 in1009.1 mb - 0.00 in0.0 mm 0.00 in0.0 mm
08:30 PM 58.4°F14.7°C 51.6°F10.9°C 78% 4.6 mph E7.4 kmh E 4.6 mph7.4 kmh 29.80 in1009.1 mb - 0.00 in0.0 mm 0.00 in0.0 mm
08:35 PM 58.3°F14.6°C 51.5°F10.8°C 78% 3.5 mph E5.6 kmh E 6.9 mph11.1 kmh 29.80 in1009.1 mb - 0.00 in0.0 mm 0.00 in0.0 mm
08:40 PM 58.1°F14.5°C 51.3°F10.7°C 78% 3.5 mph E5.6 kmh E 3.5 mph5.6 kmh 29.80 in1009.1 mb - 0.00 in0.0 mm 0.00 in0.0 mm
08:45 PM 57.8°F14.3°C 51.3°F10.7°C 79% 5.8 mph E9.3 kmh E 9.2 mph14.8 kmh 29.81 in1009.5 mb - 0.00 in0.0 mm 0.00 in0.0 mm
08:50 PM 57.5°F14.2°C 51.4°F10.8°C 80% 4.6 mph E7.4 kmh E 4.6 mph7.4 kmh 29.81 in1009.5 mb - 0.00 in0.0 mm 0.00 in0.0 mm
08:55 PM 57.3°F14.1°C 51.2°F10.7°C 80% 3.5 mph E5.6 kmh E 6.9 mph11.1 kmh 29.81 in1009.5 mb - 0.00 in0.0 mm 0.00 in0.0 mm
09:00 PM 57.2°F14.0°C 51.4°F10.8°C 81% 3.5 mph E5.6 kmh E 8.1 mph13.0 kmh 29.81 in1009.5 mb - 0.00 in0.0 mm 0.00 in0.0 mm
09:10 PM 56.9°F13.8°C 51.5°F10.8°C 82% 2.3 mph E3.7 kmh E 4.6 mph7.4 kmh 29.81 in1009.5 mb - 0.00 in0.0 mm 0.00 in0.0 mm
09:15 PM 56.9°F13.8°C 51.4°F10.8°C 82% 2.3 mph E3.7 kmh E 4.6 mph7.4 kmh 29.81 in1009.5 mb - 0.00 in0.0 mm 0.00 in0.0 mm
09:20 PM 56.6°F13.7°C 51.5°F10.8°C 83% 2.3 mph ENE3.7 kmh ENE 3.5 mph5.6 kmh 29.81 in1009.5 mb - 0.00 in0.0 mm 0.00 in0.0 mm
09:25 PM 56.4°F13.6°C 51.3°F10.7°C 83% 4.6 mph E7.4 kmh E 8.1 mph13.0 kmh 29.81 in1009.5 mb - 0.00 in0.0 mm 0.00 in0.0 mm
09:30 PM 56.2°F13.4°C 51.1°F10.6°C 83% 3.5 mph E5.6 kmh E 6.9 mph11.1 kmh 29.81 in1009.5 mb - 0.00 in0.0 mm 0.00 in0.0 mm
09:35 PM 56.0°F13.3°C 51.3°F10.7°C 84% 2.3 mph E3.7 kmh E 3.5 mph5.6 kmh 29.81 in1009.5 mb - 0.00 in0.0 mm 0.00 in0.0 mm
09:40 PM 55.9°F13.3°C 51.1°F10.6°C 84% 1.2 mph ENE1.9 kmh ENE 2.3 mph3.7 kmh 29.81 in1009.5 mb - 0.00 in0.0 mm 0.00 in0.0 mm
09:45 PM 55.6°F13.1°C 50.8°F10.4°C 84% 1.2 mph E1.9 kmh E 3.5 mph5.6 kmh 29.81 in1009.5 mb - 0.00 in0.0 mm 0.00 in0.0 mm
09:50 PM 55.4°F13.0°C 51.0°F10.6°C 85% 1.2 mph NE1.9 kmh NE 3.5 mph5.6 kmh 29.81 in1009.5 mb - 0.00 in0.0 mm 0.00 in0.0 mm
09:55 PM 55.1°F12.8°C 50.7°F10.4°C 85% 1.2 mph NE1.9 kmh NE 2.3 mph3.7 kmh 29.81 in1009.5 mb - 0.00 in0.0 mm 0.00 in0.0 mm
10:00 PM 54.7°F12.6°C 50.6°F10.3°C 86% 2.3 mph N3.7 kmh N 3.5 mph5.6 kmh 29.81 in1009.5 mb - 0.00 in0.0 mm 0.00 in0.0 mm
10:10 PM 54.1°F12.3°C 50.4°F10.2°C 87% 2.3 mph N3.7 kmh N 3.5 mph5.6 kmh 29.81 in1009.5 mb - 0.00 in0.0 mm 0.00 in0.0 mm
10:15 PM 54.1°F12.3°C 50.3°F10.2°C 87% 2.3 mph NNE3.7 kmh NNE 3.5 mph5.6 kmh 29.81 in1009.5 mb - 0.00 in0.0 mm 0.00 in0.0 mm
10:20 PM 54.1°F12.3°C 50.3°F10.2°C 87% 2.3 mph NNE3.7 kmh NNE 3.5 mph5.6 kmh 29.80 in1009.1 mb - 0.00 in0.0 mm 0.00 in0.0 mm
10:25 PM 54.2°F12.3°C 50.4°F10.2°C 87% 2.3 mph NE3.7 kmh NE 3.5 mph5.6 kmh 29.80 in1009.1 mb - 0.00 in0.0 mm 0.00 in0.0 mm
10:30 PM 54.1°F12.3°C 50.3°F10.2°C 87% 1.2 mph NE1.9 kmh NE 3.5 mph5.6 kmh 29.80 in1009.1 mb - 0.00 in0.0 mm 0.00 in0.0 mm
10:35 PM 54.2°F12.3°C 50.7°F10.4°C 88% 2.3 mph NE3.7 kmh NE 3.5 mph5.6 kmh 29.80 in1009.1 mb - 0.00 in0.0 mm 0.00 in0.0 mm
10:40 PM 54.3°F12.4°C 50.8°F10.4°C 88% 2.3 mph NE3.7 kmh NE 3.5 mph5.6 kmh 29.81 in1009.5 mb - 0.00 in0.0 mm 0.00 in0.0 mm
10:45 PM 54.3°F12.4°C 50.8°F10.4°C 88% 2.3 mph NE3.7 kmh NE 4.6 mph7.4 kmh 29.80 in1009.1 mb - 0.00 in0.0 mm 0.00 in0.0 mm
10:50 PM 54.4°F12.4°C 50.9°F10.5°C 88% 2.3 mph NE3.7 kmh NE 3.5 mph5.6 kmh 29.80 in1009.1 mb - 0.00 in0.0 mm 0.00 in0.0 mm
10:55 PM 54.4°F12.4°C 50.9°F10.5°C 88% 2.3 mph NE3.7 kmh NE 3.5 mph5.6 kmh 29.80 in1009.1 mb - 0.00 in0.0 mm 0.00 in0.0 mm
11:00 PM 54.5°F12.5°C 51.0°F10.6°C 88% 3.5 mph NE5.6 kmh NE 3.5 mph5.6 kmh 29.80 in1009.1 mb - 0.00 in0.0 mm 0.00 in0.0 mm
11:10 PM 54.5°F12.5°C 51.0°F10.6°C 88% 3.5 mph NE5.6 kmh NE 6.9 mph11.1 kmh 29.80 in1009.1 mb - 0.00 in0.0 mm 0.00 in0.0 mm
11:15 PM 54.6°F12.6°C 51.1°F10.6°C 88% 3.5 mph NE5.6 kmh NE 4.6 mph7.4 kmh 29.80 in1009.1 mb - 0.00 in0.0 mm 0.00 in0.0 mm
11:20 PM 54.7°F12.6°C 51.2°F10.7°C 88% 3.5 mph NNE5.6 kmh NNE 3.5 mph5.6 kmh 29.80 in1009.1 mb - 0.00 in0.0 mm 0.00 in0.0 mm
11:25 PM 54.3°F12.4°C 50.8°F10.4°C 88% 3.5 mph NNE5.6 kmh NNE 4.6 mph7.4 kmh 29.80 in1009.1 mb - 0.00 in0.0 mm 0.00 in0.0 mm
11:30 PM 53.9°F12.2°C 50.4°F10.2°C 88% 2.3 mph NNE3.7 kmh NNE 3.5 mph5.6 kmh 29.80 in1009.1 mb - 0.00 in0.0 mm 0.00 in0.0 mm
11:35 PM 53.7°F12.1°C 50.2°F10.1°C 88% 2.3 mph NE3.7 kmh NE 4.6 mph7.4 kmh 29.80 in1009.1 mb - 0.00 in0.0 mm 0.00 in0.0 mm
11:40 PM 54.0°F12.2°C 50.8°F10.4°C 89% 2.3 mph NE3.7 kmh NE 3.5 mph5.6 kmh 29.80 in1009.1 mb - 0.00 in0.0 mm 0.00 in0.0 mm
11:45 PM 54.1°F12.3°C 50.9°F10.5°C 89% 1.2 mph NE1.9 kmh NE 3.5 mph5.6 kmh 29.80 in1009.1 mb - 0.00 in0.0 mm 0.00 in0.0 mm
11:50 PM 54.1°F12.3°C 50.9°F10.5°C 89% 3.5 mph ENE5.6 kmh ENE 3.5 mph5.6 kmh 29.80 in1009.1 mb - 0.00 in0.0 mm 0.00 in0.0 mm
11:55 PM 54.1°F12.3°C 50.9°F10.5°C 89% 2.3 mph ENE3.7 kmh ENE 3.5 mph5.6 kmh 29.80 in1009.1 mb - 0.00 in0.0 mm 0.00 in0.0 mm